Time;durP1;ratioP1;P1;durP2;ratioP2;P2;SDS_P1;SDS_P2;PMS_P1;PMS_P2;Temp;Humidity;BMP_temperature;BMP_pressure;BME280_temperature;BME280_humidity;BME280_pressure;Samples;Min_cycle;Max_cycle;Signal;HPM_P1;HPM_P2
2022/03/25 00:01:15;;;;;;;;;;;10.00;96.90;;;;;;5075207;28;20293;-81
2022/03/25 00:03:41;;;;;;;;;;;9.70;97.20;;;;;;5075050;28;19958;-80
2022/03/25 00:06:08;;;;;;;;;;;9.80;97.10;;;;;;5074501;28;19908;-80
2022/03/25 00:08:34;;;;;;;;;;;9.70;97.70;;;;;;5074971;28;19915;-81
2022/03/25 00:11:00;;;;;;;;;;;9.60;99.00;;;;;;5074935;28;20377;-82
2022/03/25 00:13:25;;;;;;;;;;;9.60;99.80;;;;;;5074960;28;19908;-81
2022/03/25 00:15:51;;;;;;;;;;;9.50;97.40;;;;;;5074413;28;19909;-82
2022/03/25 00:18:17;;;;;;;;;;;9.40;97.60;;;;;;5090483;28;19956;-84
2022/03/25 00:20:44;;;;;;;;;;;9.30;97.60;;;;;;5076850;28;20330;-82
2022/03/25 00:23:10;;;;;;;;;;;9.30;98.10;;;;;;5094950;28;19908;-81
2022/03/25 00:25:35;;;;;;;;;;;9.20;99.80;;;;;;5094503;28;20399;-82
2022/03/25 00:28:01;;;;;;;;;;;9.50;97.80;;;;;;5094820;28;19976;-82
2022/03/25 00:30:28;;;;;;;;;;;9.30;97.10;;;;;;5094616;28;19912;-81
2022/03/25 00:32:54;;;;;;;;;;;9.20;97.90;;;;;;5094672;28;19994;-82
2022/03/25 00:35:20;;;;;;;;;;;9.00;98.80;;;;;;5094354;28;20338;-82
2022/03/25 00:37:47;;;;;;;;;;;9.00;99.90;;;;;;5094671;28;19914;-80
2022/03/25 00:40:12;;;;;;;;;;;9.20;98.80;;;;;;5094621;28;19999;-80
2022/03/25 00:42:38;;;;;;;;;;;8.80;97.70;;;;;;5094388;28;20037;-79
2022/03/25 00:45:05;;;;;;;;;;;8.70;97.70;;;;;;5075026;28;19920;-81
2022/03/25 00:47:31;;;;;;;;;;;8.60;99.00;;;;;;5094466;28;19908;-81
2022/03/25 00:49:56;;;;;;;;;;;8.60;98.50;;;;;;5076172;28;19912;-82
2022/03/25 00:52:22;;;;;;;;;;;8.40;98.70;;;;;;5076298;28;19948;-83
2022/03/25 00:54:50;;;;;;;;;;;8.40;99.90;;;;;;5093807;28;19908;-84
2022/03/25 00:57:16;;;;;;;;;;;8.50;99.90;;;;;;5094321;28;19915;-81
2022/03/25 00:59:42;;;;;;;;;;;8.50;99.90;;;;;;5094279;28;19908;-80
2022/03/25 01:02:08;;;;;;;;;;;8.50;99.90;;;;;;5094481;28;19961;-85
2022/03/25 01:04:34;;;;;;;;;;;8.60;99.90;;;;;;5075679;28;19916;-82
2022/03/25 01:06:59;;;;;;;;;;;8.60;99.30;;;;;;5094030;28;19976;-82
2022/03/25 01:09:25;;;;;;;;;;;8.60;99.90;;;;;;5094051;28;19915;-81
2022/03/25 01:11:50;;;;;;;;;;;8.70;99.90;;;;;;5093958;28;19994;-83
2022/03/25 01:14:16;;;;;;;;;;;8.70;99.90;;;;;;5093892;28;19915;-82
2022/03/25 01:16:42;;;;;;;;;;;8.60;99.90;;;;;;5093661;28;19946;-79
2022/03/25 01:19:07;;;;;;;;;;;8.50;99.90;;;;;;5093979;28;19904;-83
2022/03/25 01:21:33;;;;;;;;;;;8.80;99.90;;;;;;5075795;28;19908;-82
2022/03/25 01:23:59;;;;;;;;;;;8.60;98.70;;;;;;5093746;28;19950;-79
2022/03/25 01:26:24;;;;;;;;;;;8.60;99.60;;;;;;5075919;28;20331;-80
2022/03/25 01:28:52;;;;;;;;;;;8.60;99.90;;;;;;5073557;28;19909;-82
2022/03/25 01:31:18;;;;;;;;;;;8.70;99.50;;;;;;5073349;28;19912;-84
2022/03/25 01:33:44;;;;;;;;;;;8.80;99.60;;;;;;5073465;28;20369;-80
2022/03/25 01:36:09;;;;;;;;;;;8.50;99.80;;;;;;5072941;28;19916;-80
2022/03/25 01:38:35;;;;;;;;;;;8.50;99.20;;;;;;5073622;28;19916;-81
2022/03/25 01:41:01;;;;;;;;;;;8.50;98.40;;;;;;5073269;28;20373;-84
2022/03/25 01:43:27;;;;;;;;;;;8.50;98.10;;;;;;5073402;28;19951;-82
2022/03/25 01:45:53;;;;;;;;;;;8.50;98.20;;;;;;5053762;28;19932;-81
2022/03/25 01:48:18;;;;;;;;;;;8.20;99.90;;;;;;5073287;28;19909;-82
2022/03/25 01:50:45;;;;;;;;;;;8.20;99.90;;;;;;5073310;28;19912;-81
2022/03/25 01:53:12;;;;;;;;;;;8.10;99.60;;;;;;5073046;28;19909;-82
2022/03/25 01:55:38;;;;;;;;;;;7.90;99.90;;;;;;5072846;28;19908;-84
2022/03/25 01:58:05;;;;;;;;;;;8.00;99.90;;;;;;5073195;28;19999;-82
2022/03/25 02:00:32;;;;;;;;;;;8.00;99.90;;;;;;5073241;28;20391;-81
2022/03/25 02:02:58;;;;;;;;;;;8.30;99.70;;;;;;5055274;28;19909;-82
2022/03/25 02:05:23;;;;;;;;;;;8.30;99.10;;;;;;5072758;28;19909;-82
2022/03/25 02:07:49;;;;;;;;;;;8.40;99.40;;;;;;5073253;28;20343;-82
2022/03/25 02:10:15;;;;;;;;;;;8.10;99.90;;;;;;5072945;28;20338;-81
2022/03/25 02:12:41;;;;;;;;;;;8.00;99.90;;;;;;5073241;28;19908;-83
2022/03/25 02:15:07;;;;;;;;;;;8.00;99.90;;;;;;5077926;28;19908;-80
2022/03/25 02:17:32;;;;;;;;;;;8.10;99.90;;;;;;5093050;28;19924;-80
2022/03/25 02:19:58;;;;;;;;;;;8.30;99.90;;;;;;5093517;28;19908;-82
2022/03/25 02:22:24;;;;;;;;;;;8.20;99.80;;;;;;5097367;28;19908;-83
2022/03/25 02:24:49;;;;;;;;;;;8.00;99.80;;;;;;5097061;28;20007;-83
2022/03/25 02:27:16;;;;;;;;;;;8.00;99.90;;;;;;5097216;28;19908;-80
2022/03/25 02:29:45;;;;;;;;;;;8.20;99.30;;;;;;5096942;28;19931;-82
2022/03/25 02:32:10;;;;;;;;;;;8.30;98.10;;;;;;5097064;28;19961;-83
2022/03/25 02:34:37;;;;;;;;;;;8.30;97.90;;;;;;5078653;28;20441;-82
2022/03/25 02:37:04;;;;;;;;;;;8.30;96.90;;;;;;5097052;28;19908;-81
2022/03/25 02:39:29;;;;;;;;;;;8.20;97.10;;;;;;5096968;28;19919;-81
2022/03/25 02:41:55;;;;;;;;;;;8.30;96.60;;;;;;5078527;28;19909;-83
2022/03/25 02:44:21;;;;;;;;;;;8.40;97.00;;;;;;5096842;28;20287;-81
2022/03/25 02:46:46;;;;;;;;;;;8.20;96.40;;;;;;5077231;28;19916;-84
2022/03/25 02:49:12;;;;;;;;;;;7.90;97.20;;;;;;5096821;28;20368;-81
2022/03/25 02:51:37;;;;;;;;;;;7.90;96.60;;;;;;5096598;28;19934;-79
2022/03/25 02:54:03;;;;;;;;;;;7.70;97.80;;;;;;5078285;28;19948;-80
2022/03/25 02:56:29;;;;;;;;;;;7.60;98.00;;;;;;5096744;28;20002;-80
2022/03/25 02:58:54;;;;;;;;;;;7.90;97.30;;;;;;5078461;28;20437;-81
2022/03/25 03:01:20;;;;;;;;;;;7.90;97.60;;;;;;5096594;28;19915;-82
2022/03/25 03:03:46;;;;;;;;;;;7.60;99.20;;;;;;5096427;28;19908;-81
2022/03/25 03:06:12;;;;;;;;;;;7.50;99.90;;;;;;5096040;28;19912;-83
2022/03/25 03:08:37;;;;;;;;;;;7.60;99.90;;;;;;5096386;28;19948;-80
2022/03/25 03:11:03;;;;;;;;;;;7.60;99.90;;;;;;5096431;28;19919;-82
2022/03/25 03:13:29;;;;;;;;;;;7.60;99.90;;;;;;5096219;28;19916;-82
2022/03/25 03:15:55;;;;;;;;;;;7.60;99.90;;;;;;5095905;28;19914;-80
2022/03/25 03:18:20;;;;;;;;;;;7.50;99.90;;;;;;5077685;28;20384;-82
2022/03/25 03:20:46;;;;;;;;;;;7.40;99.90;;;;;;5078004;28;19951;-79
2022/03/25 03:23:12;;;;;;;;;;;7.50;99.90;;;;;;5077951;28;19912;-82
2022/03/25 03:25:38;;;;;;;;;;;7.70;99.90;;;;;;5095713;28;19922;-82
2022/03/25 03:28:04;;;;;;;;;;;7.80;99.70;;;;;;5077926;28;19908;-82
2022/03/25 03:30:29;;;;;;;;;;;7.70;99.40;;;;;;5095586;28;19916;-81
2022/03/25 03:32:57;;;;;;;;;;;7.60;99.90;;;;;;5094616;28;19909;-80
2022/03/25 03:35:24;;;;;;;;;;;7.50;99.90;;;;;;5095580;28;19912;-83
2022/03/25 03:37:49;;;;;;;;;;;7.50;99.90;;;;;;5095751;28;20315;-81
2022/03/25 03:40:15;;;;;;;;;;;7.50;99.90;;;;;;5095902;28;19922;-83
2022/03/25 03:42:41;;;;;;;;;;;7.30;99.90;;;;;;5077238;28;20410;-82
2022/03/25 03:45:08;;;;;;;;;;;7.10;99.90;;;;;;5058144;28;19908;-84
2022/03/25 03:47:34;;;;;;;;;;;7.10;99.90;;;;;;5077477;28;19958;-82
2022/03/25 03:50:00;;;;;;;;;;;7.10;99.90;;;;;;5095492;28;19955;-82
2022/03/25 03:52:26;;;;;;;;;;;7.20;99.60;;;;;;5095486;28;19915;-82
2022/03/25 03:54:52;;;;;;;;;;;7.00;99.40;;;;;;5095374;28;20326;-80
2022/03/25 03:57:17;;;;;;;;;;;6.70;99.90;;;;;;5077445;28;19915;-80
2022/03/25 03:59:43;;;;;;;;;;;7.00;99.90;;;;;;5095303;28;19908;-81
2022/03/25 04:02:09;;;;;;;;;;;6.90;99.90;;;;;;5095489;28;19912;-84
2022/03/25 04:04:35;;;;;;;;;;;6.90;99.90;;;;;;5095365;28;19908;-81
2022/03/25 04:07:01;;;;;;;;;;;7.20;99.40;;;;;;5094802;28;19915;-80
2022/03/25 04:09:27;;;;;;;;;;;7.00;99.60;;;;;;5077148;28;19908;-81
2022/03/25 04:11:53;;;;;;;;;;;6.70;99.90;;;;;;5095027;28;20437;-81
2022/03/25 04:14:19;;;;;;;;;;;6.50;99.90;;;;;;5095240;28;19912;-84
2022/03/25 04:16:45;;;;;;;;;;;6.50;99.90;;;;;;5094342;28;19920;-83
2022/03/25 04:19:10;;;;;;;;;;;6.50;99.90;;;;;;5095110;28;19950;-80
2022/03/25 04:21:36;;;;;;;;;;;6.50;99.90;;;;;;5094983;28;20429;-82
2022/03/25 04:24:02;;;;;;;;;;;6.30;99.90;;;;;;5076781;28;19912;-81
2022/03/25 04:26:27;;;;;;;;;;;6.50;99.90;;;;;;5094549;28;19915;-84
2022/03/25 04:28:53;;;;;;;;;;;6.80;99.90;;;;;;5094694;28;19958;-80
2022/03/25 04:31:19;;;;;;;;;;;6.90;99.90;;;;;;5094838;28;19916;-79
2022/03/25 04:33:45;;;;;;;;;;;7.00;99.90;;;;;;5076541;28;19908;-79
2022/03/25 04:36:11;;;;;;;;;;;7.00;99.90;;;;;;5094303;28;19957;-81
2022/03/25 04:38:36;;;;;;;;;;;7.00;99.40;;;;;;5094733;28;19908;-80
2022/03/25 04:41:02;;;;;;;;;;;6.80;99.30;;;;;;5076340;28;19995;-82
2022/03/25 04:43:28;;;;;;;;;;;6.70;99.90;;;;;;5094276;28;20315;-83
2022/03/25 04:45:54;;;;;;;;;;;6.60;99.90;;;;;;5074814;28;20376;-82
2022/03/25 04:48:20;;;;;;;;;;;6.60;99.90;;;;;;5094552;28;19951;-83
2022/03/25 04:50:46;;;;;;;;;;;6.70;99.90;;;;;;5094373;28;20385;-82
2022/03/25 04:53:12;;;;;;;;;;;6.60;99.50;;;;;;5094287;28;20053;-82
2022/03/25 04:55:37;;;;;;;;;;;6.60;99.90;;;;;;5094017;28;19912;-83
2022/03/25 04:58:03;;;;;;;;;;;6.60;99.90;;;;;;5094248;28;20414;-80
2022/03/25 05:00:29;;;;;;;;;;;6.60;99.50;;;;;;5094166;28;19916;-82
2022/03/25 05:02:54;;;;;;;;;;;6.30;99.90;;;;;;5094347;28;19914;-83
2022/03/25 05:05:20;;;;;;;;;;;6.20;99.90;;;;;;5075596;28;20010;-83
2022/03/25 05:07:46;;;;;;;;;;;6.30;99.90;;;;;;5094145;28;20288;-82
2022/03/25 05:10:13;;;;;;;;;;;6.60;99.90;;;;;;5094037;28;19965;-80
2022/03/25 05:12:42;;;;;;;;;;;6.50;99.90;;;;;;5075943;28;19916;-82
2022/03/25 05:15:08;;;;;;;;;;;6.40;99.90;;;;;;5075873;28;20039;-84
2022/03/25 05:17:34;;;;;;;;;;;6.40;99.90;;;;;;5093496;28;20010;-82
2022/03/25 05:20:04;;;;;;;;;;;6.30;99.90;;;;;;5093861;28;19919;-85
2022/03/25 05:22:29;;;;;;;;;;;6.40;99.90;;;;;;5093948;28;20343;-80
2022/03/25 05:24:57;;;;;;;;;;;6.00;99.90;;;;;;5093010;28;20243;-81
2022/03/25 05:27:23;;;;;;;;;;;6.00;99.90;;;;;;5093297;28;19914;-82
2022/03/25 05:29:49;;;;;;;;;;;5.80;99.90;;;;;;5093479;28;19912;-81
2022/03/25 05:32:15;;;;;;;;;;;5.70;99.90;;;;;;5093680;28;19909;-81
2022/03/25 05:34:40;;;;;;;;;;;5.70;99.90;;;;;;5093746;28;19915;-79
2022/03/25 05:37:06;;;;;;;;;;;5.70;99.90;;;;;;5077517;28;20312;-82
2022/03/25 05:39:32;;;;;;;;;;;5.90;99.90;;;;;;5073503;28;19909;-83
2022/03/25 05:41:58;;;;;;;;;;;6.30;99.90;;;;;;5073103;28;20016;-81
2022/03/25 05:44:23;;;;;;;;;;;6.50;99.90;;;;;;5072089;28;20456;-84
2022/03/25 05:46:49;;;;;;;;;;;6.60;99.90;;;;;;5043624;28;19920;-82
2022/03/25 05:49:15;;;;;;;;;;;6.70;99.90;;;;;;5073237;28;19987;-80
2022/03/25 05:51:40;;;;;;;;;;;6.40;99.90;;;;;;5073320;28;19913;-80
2022/03/25 05:54:06;;;;;;;;;;;6.40;99.90;;;;;;5073013;28;19915;-82
2022/03/25 05:56:31;;;;;;;;;;;6.50;99.90;;;;;;5072145;28;19915;-81
2022/03/25 05:58:57;;;;;;;;;;;6.50;99.90;;;;;;5055287;28;19971;-83
2022/03/25 06:01:23;;;;;;;;;;;6.30;99.90;;;;;;5073171;28;19954;-80
2022/03/25 06:03:49;;;;;;;;;;;6.40;99.90;;;;;;5073355;28;20053;-82
2022/03/25 06:06:14;;;;;;;;;;;6.40;99.90;;;;;;5079764;28;19908;-81
2022/03/25 06:08:40;;;;;;;;;;;6.20;99.90;;;;;;5075282;28;19958;-83
2022/03/25 06:11:06;;;;;;;;;;;6.20;99.90;;;;;;5075067;28;19912;-82
2022/03/25 06:13:32;;;;;;;;;;;6.40;99.90;;;;;;5075164;28;19908;-82
2022/03/25 06:15:57;;;;;;;;;;;6.50;99.90;;;;;;5092953;28;19908;-82
2022/03/25 06:18:23;;;;;;;;;;;6.50;99.90;;;;;;5092809;28;19920;-81
2022/03/25 06:20:48;;;;;;;;;;;6.60;99.90;;;;;;5093328;28;20368;-83
2022/03/25 06:23:14;;;;;;;;;;;6.50;99.90;;;;;;5075043;28;19957;-81
2022/03/25 06:25:40;;;;;;;;;;;6.50;99.90;;;;;;5074880;28;19908;-79
2022/03/25 06:28:07;;;;;;;;;;;6.70;99.90;;;;;;5074968;28;19908;-84
2022/03/25 06:30:34;;;;;;;;;;;6.60;99.90;;;;;;5092838;28;19965;-83
2022/03/25 06:33:01;;;;;;;;;;;6.70;99.90;;;;;;5093090;28;19909;-83
2022/03/25 06:35:26;;;;;;;;;;;6.60;99.90;;;;;;5093110;28;19999;-82
2022/03/25 06:37:52;;;;;;;;;;;6.50;99.60;;;;;;5092855;28;19936;-82
2022/03/25 06:40:19;;;;;;;;;;;6.50;99.90;;;;;;5092968;28;19947;-82
2022/03/25 06:42:45;;;;;;;;;;;6.60;99.90;;;;;;5075152;28;19908;-82
2022/03/25 06:45:12;;;;;;;;;;;6.90;99.90;;;;;;5092957;28;20461;-82
2022/03/25 06:47:38;;;;;;;;;;;7.10;98.90;;;;;;5055680;28;19916;-83
2022/03/25 06:50:04;;;;;;;;;;;7.30;99.70;;;;;;5092893;28;20292;-84
2022/03/25 06:52:30;;;;;;;;;;;7.80;98.70;;;;;;5092720;28;19908;-80
2022/03/25 06:54:56;;;;;;;;;;;8.20;97.80;;;;;;5092917;28;19909;-83
2022/03/25 06:57:22;;;;;;;;;;;8.50;96.10;;;;;;5092383;28;20288;-80
2022/03/25 06:59:47;;;;;;;;;;;9.00;95.30;;;;;;5092794;28;19915;-82
2022/03/25 07:02:15;;;;;;;;;;;9.60;93.70;;;;;;5092788;28;19908;-81
2022/03/25 07:04:41;;;;;;;;;;;9.60;94.70;;;;;;5092745;28;19990;-82
2022/03/25 07:07:07;;;;;;;;;;;9.80;94.70;;;;;;5081438;28;20001;-84
2022/03/25 07:09:32;;;;;;;;;;;10.60;92.60;;;;;;5076110;28;19954;-82
2022/03/25 07:11:59;;;;;;;;;;;10.30;93.40;;;;;;5076124;28;20426;-84
2022/03/25 07:14:25;;;;;;;;;;;10.20;94.90;;;;;;5076057;28;19932;-83
2022/03/25 07:16:50;;;;;;;;;;;10.80;93.30;;;;;;5071580;28;20254;-84
2022/03/25 07:19:17;;;;;;;;;;;11.10;92.30;;;;;;5055966;28;20339;-82
2022/03/25 07:21:43;;;;;;;;;;;11.10;91.80;;;;;;5055848;28;19909;-84
2022/03/25 07:24:08;;;;;;;;;;;10.90;91.80;;;;;;5055989;28;19909;-81
2022/03/25 07:26:34;;;;;;;;;;;10.70;93.00;;;;;;5062863;28;20364;-83
2022/03/25 07:29:00;;;;;;;;;;;10.70;94.10;;;;;;5075705;28;19961;-80
2022/03/25 07:31:28;;;;;;;;;;;10.80;93.20;;;;;;5075673;28;19912;-83
2022/03/25 07:33:57;;;;;;;;;;;10.80;92.50;;;;;;5075676;28;19920;-81
2022/03/25 07:36:23;;;;;;;;;;;10.60;94.50;;;;;;5075324;28;19909;-81
2022/03/25 07:38:49;;;;;;;;;;;10.60;96.40;;;;;;5075651;28;19909;-83
2022/03/25 07:41:14;;;;;;;;;;;11.10;95.80;;;;;;5075437;28;20297;-85
2022/03/25 07:43:40;;;;;;;;;;;11.40;94.40;;;;;;5075523;28;20280;-81
2022/03/25 07:46:05;;;;;;;;;;;11.60;94.30;;;;;;5056166;28;19923;-84
2022/03/25 07:48:31;;;;;;;;;;;11.80;93.80;;;;;;5075438;28;19920;-80
2022/03/25 07:50:57;;;;;;;;;;;12.10;93.60;;;;;;5075393;28;19951;-81
2022/03/25 07:53:23;;;;;;;;;;;12.70;93.30;;;;;;5075214;28;20002;-83
2022/03/25 07:55:51;;;;;;;;;;;13.80;91.00;;;;;;5056948;28;19952;-81
2022/03/25 07:58:20;;;;;;;;;;;14.80;88.20;;;;;;5075372;28;19908;-84
2022/03/25 08:00:46;;;;;;;;;;;15.60;85.20;;;;;;5075211;28;19943;-83
2022/03/25 08:03:13;;;;;;;;;;;16.40;80.60;;;;;;5075206;28;20373;-83
2022/03/25 08:05:38;;;;;;;;;;;17.60;77.00;;;;;;5074871;28;20373;-82
2022/03/25 08:08:04;;;;;;;;;;;18.10;74.00;;;;;;5074579;28;19915;-81
2022/03/25 08:10:31;;;;;;;;;;;18.70;72.00;;;;;;5075023;28;19919;-85
2022/03/25 08:12:57;;;;;;;;;;;19.60;70.00;;;;;;5074910;28;19909;-84
2022/03/25 08:15:24;;;;;;;;;;;20.40;68.50;;;;;;5074793;28;19916;-83
2022/03/25 08:17:57;;;;;;;;;;;20.80;67.40;;;;;;5085770;28;20339;-83
2022/03/25 08:20:24;;;;;;;;;;;21.00;65.70;;;;;;5095019;28;19976;-82
2022/03/25 08:22:50;;;;;;;;;;;22.00;64.10;;;;;;5077424;28;19927;-84
2022/03/25 08:28:01;;;;;;;;;;;23.00;60.10;;;;;;5077677;28;20046;-83
2022/03/25 08:30:30;;;;;;;;;;;23.40;58.60;;;;;;5075247;28;20356;-82
2022/03/25 08:32:57;;;;;;;;;;;23.80;58.60;;;;;;5057350;28;19912;-82
2022/03/25 08:35:24;;;;;;;;;;;24.50;57.90;;;;;;5057271;28;19909;-85
2022/03/25 08:37:49;;;;;;;;;;;24.90;57.00;;;;;;5056742;28;19913;-82
2022/03/25 08:40:15;;;;;;;;;;;25.30;55.50;;;;;;5074915;28;20284;-84
2022/03/25 08:42:41;;;;;;;;;;;26.40;53.00;;;;;;5057341;28;20365;-85
2022/03/25 08:45:07;;;;;;;;;;;25.50;53.10;;;;;;5074905;28;20003;-82
2022/03/25 08:47:33;;;;;;;;;;;26.70;52.10;;;;;;5050522;28;19916;-83
2022/03/25 08:49:58;;;;;;;;;;;27.30;51.00;;;;;;5093897;28;20267;-82
2022/03/25 08:52:24;;;;;;;;;;;26.20;50.60;;;;;;5094821;28;19908;-84
2022/03/25 08:54:50;;;;;;;;;;;26.30;51.20;;;;;;5094977;28;19912;-84
2022/03/25 08:57:15;;;;;;;;;;;26.20;49.30;;;;;;5084208;28;20364;-81
2022/03/25 08:59:41;;;;;;;;;;;25.80;47.80;;;;;;5074947;28;19909;-82
2022/03/25 09:02:08;;;;;;;;;;;25.80;46.80;;;;;;5074651;28;19908;-84
2022/03/25 09:04:34;;;;;;;;;;;25.90;45.00;;;;;;5056528;28;19962;-83
2022/03/25 09:07:00;;;;;;;;;;;25.70;44.40;;;;;;5082057;28;19916;-82
2022/03/25 09:09:25;;;;;;;;;;;26.00;44.60;;;;;;5094906;28;19908;-82
2022/03/25 09:11:51;;;;;;;;;;;26.30;44.30;;;;;;5093391;28;19913;-83
2022/03/25 09:14:17;;;;;;;;;;;26.70;44.90;;;;;;5094895;28;19915;-83
2022/03/25 09:16:44;;;;;;;;;;;27.60;43.50;;;;;;5093961;28;20313;-83
2022/03/25 09:19:09;;;;;;;;;;;27.70;42.70;;;;;;5094801;28;19919;-83
2022/03/25 09:21:35;;;;;;;;;;;27.80;41.40;;;;;;5094737;28;19958;-83
2022/03/25 09:24:01;;;;;;;;;;;28.00;41.40;;;;;;5094699;28;19915;-83
2022/03/25 09:26:26;;;;;;;;;;;28.20;40.40;;;;;;5094121;28;19917;-84
2022/03/25 09:28:52;;;;;;;;;;;28.60;40.00;;;;;;5076210;28;19908;-82
2022/03/25 09:31:18;;;;;;;;;;;29.20;40.60;;;;;;5094380;28;19912;-83
2022/03/25 09:33:44;;;;;;;;;;;30.70;39.20;;;;;;5093250;28;19908;-84
2022/03/25 09:36:09;;;;;;;;;;;31.00;37.90;;;;;;5094231;28;20391;-83
2022/03/25 09:38:35;;;;;;;;;;;30.80;37.80;;;;;;5093180;28;19954;-84
2022/03/25 09:41:06;;;;;;;;;;;30.80;37.40;;;;;;5094498;28;19908;-83
2022/03/25 09:43:31;;;;;;;;;;;32.00;37.40;;;;;;5076004;28;20387;-83
2022/03/25 09:45:57;;;;;;;;;;;32.00;36.80;;;;;;5094191;28;19912;-85
2022/03/25 09:48:22;;;;;;;;;;;32.00;36.80;;;;;;5074735;28;19916;-84
2022/03/25 09:50:48;;;;;;;;;;;32.30;35.80;;;;;;5093803;28;20283;-84
2022/03/25 09:53:14;;;;;;;;;;;32.50;36.30;;;;;;5094066;28;19912;-83
2022/03/25 09:55:41;;;;;;;;;;;32.90;36.10;;;;;;5094077;28;20326;-84
2022/03/25 09:58:07;;;;;;;;;;;33.40;36.00;;;;;;5075628;28;19952;-83
2022/03/25 10:00:32;;;;;;;;;;;33.60;35.10;;;;;;5094071;28;19908;-84
2022/03/25 10:02:58;;;;;;;;;;;34.00;35.50;;;;;;5094112;28;19974;-85
2022/03/25 10:05:23;;;;;;;;;;;34.30;35.60;;;;;;5094111;28;20315;-82
2022/03/25 10:07:50;;;;;;;;;;;34.50;34.50;;;;;;5093668;28;19926;-82
2022/03/25 10:10:17;;;;;;;;;;;35.20;34.70;;;;;;5093930;28;19912;-80
2022/03/25 10:12:44;;;;;;;;;;;35.70;35.00;;;;;;5093373;28;19995;-81
2022/03/25 10:15:10;;;;;;;;;;;36.20;33.60;;;;;;5093144;28;19912;-80
2022/03/25 10:17:49;;;;;;;;;;;36.30;33.00;;;;;;5092856;28;19921;-84
2022/03/25 10:20:16;;;;;;;;;;;35.60;33.60;;;;;;5093688;28;19908;-80
2022/03/25 10:23:00;;;;;;;;;;;36.00;33.30;;;;;;5093917;28;19970;-79
2022/03/25 10:25:45;;;;;;;;;;;36.40;32.60;;;;;;5093218;28;20003;-81
2022/03/25 10:28:40;;;;;;;;;;;36.20;32.40;;;;;;5074707;28;19909;-82
2022/03/25 10:31:06;;;;;;;;;;;36.20;32.70;;;;;;5074431;28;20334;-80
2022/03/25 10:33:36;;;;;;;;;;;37.20;32.50;;;;;;5093602;28;19908;-82
2022/03/25 10:36:02;;;;;;;;;;;37.90;32.20;;;;;;5093605;28;19954;-79
2022/03/25 10:38:40;;;;;;;;;;;37.20;32.20;;;;;;5076072;28;19909;-83
2022/03/25 10:41:06;;;;;;;;;;;37.60;32.20;;;;;;5073795;28;19915;-81
2022/03/25 10:43:31;;;;;;;;;;;38.10;32.70;;;;;;5077259;28;20003;-79
2022/03/25 10:45:57;;;;;;;;;;;37.70;31.70;;;;;;5077092;28;19921;-84
2022/03/25 10:48:24;;;;;;;;;;;37.90;31.80;;;;;;5055593;28;19962;-85
2022/03/25 10:51:00;;;;;;;;;;;38.80;31.30;;;;;;5079266;28;19912;-82
2022/03/25 10:53:27;;;;;;;;;;;38.90;31.20;;;;;;5097484;28;20400;-83
2022/03/25 10:55:57;;;;;;;;;;;39.70;31.80;;;;;;5097120;28;20280;-83
2022/03/25 10:58:22;;;;;;;;;;;38.60;30.70;;;;;;5080713;28;19923;-82
2022/03/25 11:00:48;;;;;;;;;;;37.80;30.90;;;;;;5059193;28;19912;-80
2022/03/25 11:03:14;;;;;;;;;;;37.00;31.90;;;;;;5076844;28;19908;-83
2022/03/25 11:05:40;;;;;;;;;;;36.30;31.40;;;;;;5076726;28;19912;-82
2022/03/25 11:08:06;;;;;;;;;;;36.60;32.10;;;;;;5074947;28;19909;-80
2022/03/25 11:10:32;;;;;;;;;;;36.90;31.70;;;;;;5076765;28;19909;-81
2022/03/25 11:13:01;;;;;;;;;;;37.50;31.80;;;;;;5076678;28;19948;-81
2022/03/25 11:15:27;;;;;;;;;;;37.40;30.90;;;;;;5058505;28;19951;-80
2022/03/25 11:17:53;;;;;;;;;;;37.80;31.60;;;;;;5054819;28;19956;-83
2022/03/25 11:20:20;;;;;;;;;;;38.60;31.30;;;;;;5056462;28;19972;-81
2022/03/25 11:22:45;;;;;;;;;;;39.40;31.80;;;;;;5056475;28;19909;-80
2022/03/25 11:25:13;;;;;;;;;;;38.80;31.50;;;;;;5056414;28;19909;-83
2022/03/25 11:27:40;;;;;;;;;;;39.00;31.40;;;;;;5056193;28;20296;-81
2022/03/25 11:30:13;;;;;;;;;;;39.70;31.50;;;;;;5056536;28;20352;-82
2022/03/25 11:32:57;;;;;;;;;;;39.20;30.80;;;;;;5056674;28;19974;-80
2022/03/25 11:35:24;;;;;;;;;;;39.90;31.10;;;;;;5056392;28;19916;-80
2022/03/25 11:38:08;;;;;;;;;;;40.80;31.10;;;;;;5054807;28;19913;-81
2022/03/25 11:40:34;;;;;;;;;;;40.40;30.70;;;;;;5056026;28;19917;-80
2022/03/25 11:43:11;;;;;;;;;;;40.20;30.70;;;;;;5056204;28;19962;-80
2022/03/25 11:45:37;;;;;;;;;;;40.30;30.60;;;;;;5054632;28;19909;-83
2022/03/25 11:48:06;;;;;;;;;;;40.30;29.80;;;;;;5035035;28;20396;-81
2022/03/25 11:50:35;;;;;;;;;;;40.10;30.00;;;;;;5054950;28;19909;-82
2022/03/25 11:53:10;;;;;;;;;;;39.50;30.40;;;;;;5055050;28;19962;-80
2022/03/25 11:55:54;;;;;;;;;;;40.30;30.60;;;;;;5055851;28;19908;-82
2022/03/25 11:58:19;;;;;;;;;;;39.60;30.40;;;;;;5068916;28;20377;-80
2022/03/25 12:00:48;;;;;;;;;;;40.90;30.40;;;;;;5057906;28;19991;-82
2022/03/25 12:03:14;;;;;;;;;;;40.80;30.00;;;;;;5058087;28;19916;-80
2022/03/25 12:05:55;;;;;;;;;;;41.10;30.50;;;;;;5075501;28;19935;-80
2022/03/25 12:08:21;;;;;;;;;;;41.10;30.30;;;;;;5073722;28;19930;-81
2022/03/25 12:10:49;;;;;;;;;;;42.10;30.20;;;;;;5057863;28;20003;-81
2022/03/25 12:13:15;;;;;;;;;;;42.70;29.80;;;;;;5075727;28;19916;-82
2022/03/25 12:15:42;;;;;;;;;;;43.20;29.90;;;;;;5075397;28;19908;-80
2022/03/25 12:18:26;;;;;;;;;;;43.10;29.60;;;;;;5054701;28;19921;-82
2022/03/25 12:20:52;;;;;;;;;;;43.00;29.60;;;;;;5055547;28;19913;-81
2022/03/25 12:23:17;;;;;;;;;;;43.60;29.40;;;;;;5055354;28;20277;-80
2022/03/25 12:25:46;;;;;;;;;;;43.20;29.30;;;;;;5055407;28;19984;-83
2022/03/25 12:28:12;;;;;;;;;;;43.90;29.50;;;;;;5066394;28;19917;-80
2022/03/25 12:30:37;;;;;;;;;;;43.30;29.20;;;;;;5073535;28;19982;-81
2022/03/25 12:33:07;;;;;;;;;;;42.80;28.90;;;;;;5075099;28;19958;-81
2022/03/25 12:35:35;;;;;;;;;;;42.10;29.10;;;;;;5075077;28;20318;-82
2022/03/25 12:38:17;;;;;;;;;;;42.10;29.60;;;;;;5065032;28;20272;-80
2022/03/25 12:40:43;;;;;;;;;;;42.30;29.50;;;;;;5055195;28;19919;-82
2022/03/25 12:43:11;;;;;;;;;;;42.80;29.20;;;;;;5053693;28;20362;-81
2022/03/25 12:45:40;;;;;;;;;;;42.20;29.20;;;;;;5053780;28;19916;-80
2022/03/25 12:48:10;;;;;;;;;;;42.50;29.30;;;;;;5038596;28;19917;-80
2022/03/25 12:50:37;;;;;;;;;;;43.00;29.40;;;;;;5073406;28;19930;-80
2022/03/25 12:53:04;;;;;;;;;;;42.50;28.90;;;;;;5073359;28;20388;-82
2022/03/25 12:55:32;;;;;;;;;;;43.20;29.20;;;;;;5073239;28;19913;-82
2022/03/25 12:58:08;;;;;;;;;;;43.70;28.90;;;;;;5073171;28;19909;-81
2022/03/25 13:00:35;;;;;;;;;;;43.40;28.90;;;;;;5073169;28;19913;-81
2022/03/25 13:03:01;;;;;;;;;;;44.00;29.30;;;;;;5074609;28;19958;-84
2022/03/25 13:05:27;;;;;;;;;;;43.40;29.50;;;;;;5074081;28;20327;-82
2022/03/25 13:07:54;;;;;;;;;;;43.00;28.60;;;;;;5073070;28;19908;-81
2022/03/25 13:10:20;;;;;;;;;;;43.50;28.90;;;;;;5074318;28;19909;-82
2022/03/25 13:12:52;;;;;;;;;;;43.00;28.30;;;;;;5074742;28;19979;-81
2022/03/25 13:15:26;;;;;;;;;;;41.60;28.60;;;;;;5074264;28;20285;-83
2022/03/25 13:17:52;;;;;;;;;;;41.60;28.90;;;;;;5083743;28;19920;-80
2022/03/25 13:20:19;;;;;;;;;;;42.00;28.90;;;;;;5076073;28;20398;-86
2022/03/25 13:22:54;;;;;;;;;;;41.40;28.20;;;;;;5076240;28;19931;-83
2022/03/25 13:25:23;;;;;;;;;;;40.90;29.00;;;;;;5076508;28;19912;-88
2022/03/25 13:27:49;;;;;;;;;;;39.80;28.90;;;;;;5087764;28;19957;-82
2022/03/25 13:30:14;;;;;;;;;;;40.80;29.10;;;;;;5055925;28;20289;-86
2022/03/25 13:32:40;;;;;;;;;;;40.20;29.30;;;;;;5074172;28;19919;-82
2022/03/25 13:35:10;;;;;;;;;;;40.20;28.80;;;;;;5074224;28;19908;-83
2022/03/25 13:37:36;;;;;;;;;;;40.40;29.20;;;;;;5060041;28;19934;-82
2022/03/25 13:40:03;;;;;;;;;;;40.00;28.60;;;;;;5094025;28;20394;-82
2022/03/25 13:42:32;;;;;;;;;;;40.00;29.30;;;;;;5076098;28;20349;-82
2022/03/25 13:45:08;;;;;;;;;;;40.80;30.00;;;;;;5094276;28;20360;-83
2022/03/25 13:47:34;;;;;;;;;;;41.70;28.90;;;;;;5066373;28;20405;-83
2022/03/25 13:50:17;;;;;;;;;;;42.00;28.70;;;;;;5074006;28;19908;-81
2022/03/25 13:52:53;;;;;;;;;;;41.60;28.90;;;;;;5055663;28;20335;-83
2022/03/25 13:55:19;;;;;;;;;;;40.80;28.70;;;;;;5073913;28;19908;-80
2022/03/25 13:57:58;;;;;;;;;;;40.60;28.20;;;;;;5073901;28;20391;-82
2022/03/25 14:00:30;;;;;;;;;;;40.30;28.80;;;;;;5073839;28;19978;-81
2022/03/25 14:02:57;;;;;;;;;;;39.90;28.60;;;;;;5073662;28;19958;-82
2022/03/25 14:05:25;;;;;;;;;;;40.30;28.50;;;;;;5074174;28;19975;-81
2022/03/25 14:07:52;;;;;;;;;;;40.30;28.80;;;;;;5079032;28;19957;-82
2022/03/25 14:10:17;;;;;;;;;;;39.60;29.00;;;;;;5076153;28;20357;-80
2022/03/25 14:12:43;;;;;;;;;;;39.30;29.00;;;;;;5093903;28;19930;-81
2022/03/25 14:15:11;;;;;;;;;;;39.00;28.90;;;;;;5093710;28;19908;-82
2022/03/25 14:17:43;;;;;;;;;;;38.00;28.40;;;;;;5096145;28;20346;-81
2022/03/25 14:20:16;;;;;;;;;;;37.80;29.20;;;;;;5098000;28;19957;-82
2022/03/25 14:22:42;;;;;;;;;;;37.20;29.20;;;;;;5079833;28;19954;-81
2022/03/25 14:25:08;;;;;;;;;;;37.50;29.30;;;;;;5079616;28;19954;-82